sensor_id;sensor_type;location;lat;lon;timestamp;P1;durP1;ratioP1;P2;durP2;ratioP2
49852;SDS011;35751;48.072;11.688;2023-02-01T00:02:11;5.88;;;3.10;;
49852;SDS011;35751;48.072;11.688;2023-02-01T00:04:36;3.75;;;2.35;;
49852;SDS011;35751;48.072;11.688;2023-02-01T00:07:01;5.43;;;3.00;;
49852;SDS011;35751;48.072;11.688;2023-02-01T00:09:27;5.05;;;2.75;;
49852;SDS011;35751;48.072;11.688;2023-02-01T00:11:52;4.22;;;2.70;;
49852;SDS011;35751;48.072;11.688;2023-02-01T00:14:18;2.80;;;2.20;;
49852;SDS011;35751;48.072;11.688;2023-02-01T00:16:43;4.30;;;2.25;;
49852;SDS011;35751;48.072;11.688;2023-02-01T00:19:11;9.30;;;2.65;;
49852;SDS011;35751;48.072;11.688;2023-02-01T00:21:39;4.63;;;2.70;;
49852;SDS011;35751;48.072;11.688;2023-02-01T00:24:04;3.90;;;2.75;;
49852;SDS011;35751;48.072;11.688;2023-02-01T00:26:31;3.80;;;2.13;;
49852;SDS011;35751;48.072;11.688;2023-02-01T00:28:57;4.90;;;3.00;;
49852;SDS011;35751;48.072;11.688;2023-02-01T00:31:22;3.60;;;2.20;;
49852;SDS011;35751;48.072;11.688;2023-02-01T00:33:48;4.63;;;2.72;;
49852;SDS011;35751;48.072;11.688;2023-02-01T00:36:14;3.53;;;2.42;;
49852;SDS011;35751;48.072;11.688;2023-02-01T00:38:40;3.38;;;2.08;;
49852;SDS011;35751;48.072;11.688;2023-02-01T00:41:06;6.63;;;2.80;;
49852;SDS011;35751;48.072;11.688;2023-02-01T00:43:43;4.85;;;2.70;;
49852;SDS011;35751;48.072;11.688;2023-02-01T00:46:09;10.27;;;2.78;;
49852;SDS011;35751;48.072;11.688;2023-02-01T00:48:35;5.15;;;2.95;;
49852;SDS011;35751;48.072;11.688;2023-02-01T00:51:01;3.72;;;2.22;;
49852;SDS011;35751;48.072;11.688;2023-02-01T00:53:27;2.92;;;2.35;;
49852;SDS011;35751;48.072;11.688;2023-02-01T00:55:53;3.42;;;2.08;;
49852;SDS011;35751;48.072;11.688;2023-02-01T00:58:19;2.65;;;2.25;;
49852;SDS011;35751;48.072;11.688;2023-02-01T01:00:44;3.97;;;1.98;;
49852;SDS011;35751;48.072;11.688;2023-02-01T01:03:11;4.07;;;2.22;;
49852;SDS011;35751;48.072;11.688;2023-02-01T01:05:44;5.50;;;3.25;;
49852;SDS011;35751;48.072;11.688;2023-02-01T01:08:10;5.00;;;2.33;;
49852;SDS011;35751;48.072;11.688;2023-02-01T01:10:36;4.05;;;2.10;;
49852;SDS011;35751;48.072;11.688;2023-02-01T01:13:01;4.70;;;2.65;;
49852;SDS011;35751;48.072;11.688;2023-02-01T01:15:26;3.05;;;2.13;;
49852;SDS011;35751;48.072;11.688;2023-02-01T01:17:52;4.35;;;2.53;;
49852;SDS011;35751;48.072;11.688;2023-02-01T01:20:17;3.58;;;2.83;;
49852;SDS011;35751;48.072;11.688;2023-02-01T01:22:46;4.45;;;2.50;;
49852;SDS011;35751;48.072;11.688;2023-02-01T01:25:12;3.78;;;2.50;;
49852;SDS011;35751;48.072;11.688;2023-02-01T01:27:37;4.45;;;2.28;;
49852;SDS011;35751;48.072;11.688;2023-02-01T01:30:03;5.00;;;3.25;;
49852;SDS011;35751;48.072;11.688;2023-02-01T01:32:28;4.65;;;3.15;;
49852;SDS011;35751;48.072;11.688;2023-02-01T01:34:54;4.75;;;3.03;;
49852;SDS011;35751;48.072;11.688;2023-02-01T01:37:19;3.10;;;2.55;;
49852;SDS011;35751;48.072;11.688;2023-02-01T01:39:44;4.10;;;3.08;;
49852;SDS011;35751;48.072;11.688;2023-02-01T01:42:11;6.28;;;3.47;;
49852;SDS011;35751;48.072;11.688;2023-02-01T01:47:37;5.40;;;3.10;;
49852;SDS011;35751;48.072;11.688;2023-02-01T01:50:13;6.13;;;3.75;;
49852;SDS011;35751;48.072;11.688;2023-02-01T01:52:41;7.13;;;3.88;;
49852;SDS011;35751;48.072;11.688;2023-02-01T01:55:09;6.15;;;3.78;;
49852;SDS011;35751;48.072;11.688;2023-02-01T01:57:36;8.07;;;4.07;;
49852;SDS011;35751;48.072;11.688;2023-02-01T02:00:05;6.82;;;3.33;;
49852;SDS011;35751;48.072;11.688;2023-02-01T02:02:33;8.48;;;4.43;;
49852;SDS011;35751;48.072;11.688;2023-02-01T02:04:59;6.22;;;3.85;;
49852;SDS011;35751;48.072;11.688;2023-02-01T02:07:28;9.15;;;4.13;;
49852;SDS011;35751;48.072;11.688;2023-02-01T02:09:56;9.25;;;3.80;;
49852;SDS011;35751;48.072;11.688;2023-02-01T02:12:21;6.70;;;4.32;;
49852;SDS011;35751;48.072;11.688;2023-02-01T02:14:47;7.90;;;4.75;;
49852;SDS011;35751;48.072;11.688;2023-02-01T02:17:16;10.75;;;5.22;;
49852;SDS011;35751;48.072;11.688;2023-02-01T02:19:54;7.43;;;3.72;;
49852;SDS011;35751;48.072;11.688;2023-02-01T02:22:43;5.53;;;3.97;;
49852;SDS011;35751;48.072;11.688;2023-02-01T02:39:32;7.15;;;3.83;;
49852;SDS011;35751;48.072;11.688;2023-02-01T02:48:18;7.30;;;3.90;;
49852;SDS011;35751;48.072;11.688;2023-02-01T02:51:01;6.60;;;3.42;;
49852;SDS011;35751;48.072;11.688;2023-02-01T02:54:00;5.90;;;3.72;;
49852;SDS011;35751;48.072;11.688;2023-02-01T02:56:49;7.60;;;3.70;;
49852;SDS011;35751;48.072;11.688;2023-02-01T02:59:34;5.97;;;3.13;;
49852;SDS011;35751;48.072;11.688;2023-02-01T03:02:18;7.35;;;4.03;;
49852;SDS011;35751;48.072;11.688;2023-02-01T03:05:03;5.13;;;3.47;;
49852;SDS011;35751;48.072;11.688;2023-02-01T03:10:10;6.97;;;3.90;;
49852;SDS011;35751;48.072;11.688;2023-02-01T03:12:40;6.60;;;4.68;;
49852;SDS011;35751;48.072;11.688;2023-02-01T03:15:21;7.15;;;3.60;;
49852;SDS011;35751;48.072;11.688;2023-02-01T03:17:51;6.90;;;3.67;;
49852;SDS011;35751;48.072;11.688;2023-02-01T03:20:18;7.18;;;4.00;;
49852;SDS011;35751;48.072;11.688;2023-02-01T03:22:44;7.97;;;4.13;;
49852;SDS011;35751;48.072;11.688;2023-02-01T03:25:16;9.32;;;4.15;;
49852;SDS011;35751;48.072;11.688;2023-02-01T03:27:49;5.45;;;4.18;;
49852;SDS011;35751;48.072;11.688;2023-02-01T03:30:20;7.47;;;3.88;;
49852;SDS011;35751;48.072;11.688;2023-02-01T03:32:47;4.82;;;3.58;;
49852;SDS011;35751;48.072;11.688;2023-02-01T03:39:00;6.15;;;4.03;;
49852;SDS011;35751;48.072;11.688;2023-02-01T03:41:09;6.32;;;3.50;;
49852;SDS011;35751;48.072;11.688;2023-02-01T03:43:39;7.93;;;3.45;;
49852;SDS011;35751;48.072;11.688;2023-02-01T03:46:11;6.40;;;4.63;;
49852;SDS011;35751;48.072;11.688;2023-02-01T03:48:39;9.15;;;3.40;;
49852;SDS011;35751;48.072;11.688;2023-02-01T03:51:04;6.93;;;3.58;;
49852;SDS011;35751;48.072;11.688;2023-02-01T03:53:31;5.15;;;3.63;;
49852;SDS011;35751;48.072;11.688;2023-02-01T03:55:58;5.63;;;3.65;;
49852;SDS011;35751;48.072;11.688;2023-02-01T03:58:23;5.18;;;4.03;;
49852;SDS011;35751;48.072;11.688;2023-02-01T04:00:56;5.07;;;3.13;;
49852;SDS011;35751;48.072;11.688;2023-02-01T04:03:23;4.97;;;3.28;;
49852;SDS011;35751;48.072;11.688;2023-02-01T04:05:52;5.15;;;3.83;;
49852;SDS011;35751;48.072;11.688;2023-02-01T04:08:19;5.03;;;3.20;;
49852;SDS011;35751;48.072;11.688;2023-02-01T04:10:45;6.35;;;3.97;;
49852;SDS011;35751;48.072;11.688;2023-02-01T04:13:11;6.90;;;3.88;;
49852;SDS011;35751;48.072;11.688;2023-02-01T04:15:38;5.82;;;3.35;;
49852;SDS011;35751;48.072;11.688;2023-02-01T04:18:04;5.30;;;3.25;;
49852;SDS011;35751;48.072;11.688;2023-02-01T04:20:30;5.78;;;3.45;;
49852;SDS011;35751;48.072;11.688;2023-02-01T04:22:56;5.38;;;2.92;;
49852;SDS011;35751;48.072;11.688;2023-02-01T04:25:22;3.92;;;3.25;;
49852;SDS011;35751;48.072;11.688;2023-02-01T04:27:57;5.00;;;3.63;;
49852;SDS011;35751;48.072;11.688;2023-02-01T04:30:24;4.55;;;3.42;;
49852;SDS011;35751;48.072;11.688;2023-02-01T04:32:49;6.90;;;3.17;;
49852;SDS011;35751;48.072;11.688;2023-02-01T04:35:15;4.53;;;3.45;;
49852;SDS011;35751;48.072;11.688;2023-02-01T04:37:40;5.32;;;2.88;;
49852;SDS011;35751;48.072;11.688;2023-02-01T04:40:06;10.43;;;4.20;;
49852;SDS011;35751;48.072;11.688;2023-02-01T04:42:32;5.93;;;3.70;;
49852;SDS011;35751;48.072;11.688;2023-02-01T04:44:57;6.78;;;3.78;;
49852;SDS011;35751;48.072;11.688;2023-02-01T04:47:23;4.38;;;3.45;;
49852;SDS011;35751;48.072;11.688;2023-02-01T04:49:48;5.55;;;3.63;;
49852;SDS011;35751;48.072;11.688;2023-02-01T04:52:13;6.75;;;4.82;;
49852;SDS011;35751;48.072;11.688;2023-02-01T04:54:39;3.85;;;2.88;;
49852;SDS011;35751;48.072;11.688;2023-02-01T04:57:04;6.22;;;3.65;;
49852;SDS011;35751;48.072;11.688;2023-02-01T04:59:30;5.88;;;4.00;;
49852;SDS011;35751;48.072;11.688;2023-02-01T05:01:55;5.53;;;3.33;;
49852;SDS011;35751;48.072;11.688;2023-02-01T05:04:21;8.90;;;3.33;;
49852;SDS011;35751;48.072;11.688;2023-02-01T05:06:46;5.75;;;3.60;;
49852;SDS011;35751;48.072;11.688;2023-02-01T05:09:12;5.68;;;3.50;;
49852;SDS011;35751;48.072;11.688;2023-02-01T05:11:37;5.43;;;3.72;;
49852;SDS011;35751;48.072;11.688;2023-02-01T05:14:21;6.38;;;4.18;;
49852;SDS011;35751;48.072;11.688;2023-02-01T05:16:46;6.10;;;3.90;;
49852;SDS011;35751;48.072;11.688;2023-02-01T05:19:12;6.88;;;3.60;;
49852;SDS011;35751;48.072;11.688;2023-02-01T05:21:37;4.72;;;3.20;;
49852;SDS011;35751;48.072;11.688;2023-02-01T05:24:03;5.78;;;3.65;;
49852;SDS011;35751;48.072;11.688;2023-02-01T05:26:34;7.18;;;4.32;;
49852;SDS011;35751;48.072;11.688;2023-02-01T05:29:01;4.97;;;3.40;;
49852;SDS011;35751;48.072;11.688;2023-02-01T05:31:26;6.63;;;3.50;;
49852;SDS011;35751;48.072;11.688;2023-02-01T05:33:52;5.05;;;3.35;;
49852;SDS011;35751;48.072;11.688;2023-02-01T05:36:17;6.53;;;4.40;;
49852;SDS011;35751;48.072;11.688;2023-02-01T05:38:43;5.70;;;4.53;;
49852;SDS011;35751;48.072;11.688;2023-02-01T05:41:09;6.07;;;3.88;;
49852;SDS011;35751;48.072;11.688;2023-02-01T05:43:34;6.70;;;3.83;;
49852;SDS011;35751;48.072;11.688;2023-02-01T05:46:00;6.57;;;3.67;;
49852;SDS011;35751;48.072;11.688;2023-02-01T05:48:26;6.55;;;4.85;;
49852;SDS011;35751;48.072;11.688;2023-02-01T05:50:51;7.35;;;4.13;;
49852;SDS011;35751;48.072;11.688;2023-02-01T05:53:17;6.20;;;3.78;;
49852;SDS011;35751;48.072;11.688;2023-02-01T05:55:42;6.85;;;4.15;;
49852;SDS011;35751;48.072;11.688;2023-02-01T05:58:08;4.40;;;3.95;;
49852;SDS011;35751;48.072;11.688;2023-02-01T06:00:34;5.75;;;3.92;;
49852;SDS011;35751;48.072;11.688;2023-02-01T06:03:00;5.28;;;3.72;;
49852;SDS011;35751;48.072;11.688;2023-02-01T06:05:26;6.63;;;3.83;;
49852;SDS011;35751;48.072;11.688;2023-02-01T06:07:52;7.03;;;5.10;;
49852;SDS011;35751;48.072;11.688;2023-02-01T06:10:18;6.68;;;3.83;;
49852;SDS011;35751;48.072;11.688;2023-02-01T06:12:44;7.25;;;4.25;;
49852;SDS011;35751;48.072;11.688;2023-02-01T06:15:12;6.90;;;3.88;;
49852;SDS011;35751;48.072;11.688;2023-02-01T06:17:40;9.30;;;4.05;;
49852;SDS011;35751;48.072;11.688;2023-02-01T06:20:07;7.10;;;4.35;;
49852;SDS011;35751;48.072;11.688;2023-02-01T06:22:33;5.57;;;4.55;;
49852;SDS011;35751;48.072;11.688;2023-02-01T06:25:01;5.70;;;4.20;;
49852;SDS011;35751;48.072;11.688;2023-02-01T06:27:28;5.65;;;4.00;;
49852;SDS011;35751;48.072;11.688;2023-02-01T06:29:53;7.72;;;4.47;;
49852;SDS011;35751;48.072;11.688;2023-02-01T06:32:20;8.88;;;4.75;;
49852;SDS011;35751;48.072;11.688;2023-02-01T06:34:45;5.90;;;3.90;;
49852;SDS011;35751;48.072;11.688;2023-02-01T06:37:11;7.32;;;4.32;;
49852;SDS011;35751;48.072;11.688;2023-02-01T06:39:36;7.55;;;5.05;;
49852;SDS011;35751;48.072;11.688;2023-02-01T06:42:03;8.65;;;4.95;;
49852;SDS011;35751;48.072;11.688;2023-02-01T06:44:28;7.32;;;4.85;;
49852;SDS011;35751;48.072;11.688;2023-02-01T06:46:53;6.63;;;4.57;;
49852;SDS011;35751;48.072;11.688;2023-02-01T06:49:19;8.30;;;4.72;;
49852;SDS011;35751;48.072;11.688;2023-02-01T06:51:45;8.60;;;4.72;;
49852;SDS011;35751;48.072;11.688;2023-02-01T06:54:13;8.23;;;4.45;;
49852;SDS011;35751;48.072;11.688;2023-02-01T06:56:38;7.57;;;4.97;;
49852;SDS011;35751;48.072;11.688;2023-02-01T06:59:05;7.78;;;4.15;;
49852;SDS011;35751;48.072;11.688;2023-02-01T07:01:31;6.25;;;4.10;;
49852;SDS011;35751;48.072;11.688;2023-02-01T07:03:57;5.35;;;3.45;;
49852;SDS011;35751;48.072;11.688;2023-02-01T07:06:22;6.63;;;3.60;;
49852;SDS011;35751;48.072;11.688;2023-02-01T07:08:48;7.72;;;4.13;;
49852;SDS011;35751;48.072;11.688;2023-02-01T07:11:14;7.85;;;4.05;;
49852;SDS011;35751;48.072;11.688;2023-02-01T07:13:41;5.88;;;3.97;;
49852;SDS011;35751;48.072;11.688;2023-02-01T07:16:09;6.10;;;4.10;;
49852;SDS011;35751;48.072;11.688;2023-02-01T07:18:36;7.72;;;5.18;;
49852;SDS011;35751;48.072;11.688;2023-02-01T07:21:03;6.60;;;3.95;;
49852;SDS011;35751;48.072;11.688;2023-02-01T07:23:28;7.47;;;3.58;;
49852;SDS011;35751;48.072;11.688;2023-02-01T07:25:55;7.63;;;3.42;;
49852;SDS011;35751;48.072;11.688;2023-02-01T07:28:25;5.53;;;3.25;;
49852;SDS011;35751;48.072;11.688;2023-02-01T07:30:51;13.98;;;5.82;;
49852;SDS011;35751;48.072;11.688;2023-02-01T07:33:18;4.85;;;3.10;;
49852;SDS011;35751;48.072;11.688;2023-02-01T07:35:48;5.57;;;3.63;;
49852;SDS011;35751;48.072;11.688;2023-02-01T07:38:14;5.93;;;3.55;;
49852;SDS011;35751;48.072;11.688;2023-02-01T07:40:41;6.43;;;3.15;;
49852;SDS011;35751;48.072;11.688;2023-02-01T07:43:07;5.10;;;3.25;;
49852;SDS011;35751;48.072;11.688;2023-02-01T07:45:34;3.58;;;2.75;;
49852;SDS011;35751;48.072;11.688;2023-02-01T07:48:00;6.50;;;3.58;;
49852;SDS011;35751;48.072;11.688;2023-02-01T07:50:27;6.38;;;3.75;;
49852;SDS011;35751;48.072;11.688;2023-02-01T07:52:53;5.35;;;2.80;;
49852;SDS011;35751;48.072;11.688;2023-02-01T07:55:19;7.97;;;2.80;;
49852;SDS011;35751;48.072;11.688;2023-02-01T07:57:45;3.58;;;2.65;;
49852;SDS011;35751;48.072;11.688;2023-02-01T08:00:11;3.30;;;2.20;;
49852;SDS011;35751;48.072;11.688;2023-02-01T08:02:59;5.15;;;2.60;;
49852;SDS011;35751;48.072;11.688;2023-02-01T08:05:25;2.78;;;2.30;;
49852;SDS011;35751;48.072;11.688;2023-02-01T08:07:51;5.32;;;2.45;;
49852;SDS011;35751;48.072;11.688;2023-02-01T08:10:17;3.97;;;2.17;;
49852;SDS011;35751;48.072;11.688;2023-02-01T08:12:44;4.50;;;2.65;;
49852;SDS011;35751;48.072;11.688;2023-02-01T08:15:14;3.92;;;2.42;;
49852;SDS011;35751;48.072;11.688;2023-02-01T08:17:47;3.92;;;2.30;;
49852;SDS011;35751;48.072;11.688;2023-02-01T08:20:16;4.20;;;2.37;;
49852;SDS011;35751;48.072;11.688;2023-02-01T08:22:43;7.20;;;2.88;;
49852;SDS011;35751;48.072;11.688;2023-02-01T08:25:10;2.90;;;2.25;;
49852;SDS011;35751;48.072;11.688;2023-02-01T08:27:36;4.82;;;2.88;;
49852;SDS011;35751;48.072;11.688;2023-02-01T08:30:02;3.83;;;2.08;;
49852;SDS011;35751;48.072;11.688;2023-02-01T08:32:29;3.22;;;2.17;;
49852;SDS011;35751;48.072;11.688;2023-02-01T08:34:55;3.20;;;2.42;;
49852;SDS011;35751;48.072;11.688;2023-02-01T08:37:21;2.88;;;2.00;;
49852;SDS011;35751;48.072;11.688;2023-02-01T08:39:47;5.85;;;2.25;;
49852;SDS011;35751;48.072;11.688;2023-02-01T08:42:15;4.72;;;2.67;;
49852;SDS011;35751;48.072;11.688;2023-02-01T08:45:00;2.65;;;1.50;;
49852;SDS011;35751;48.072;11.688;2023-02-01T08:47:25;3.42;;;2.00;;
49852;SDS011;35751;48.072;11.688;2023-02-01T08:49:51;2.85;;;2.38;;
49852;SDS011;35751;48.072;11.688;2023-02-01T08:52:18;2.42;;;2.22;;
49852;SDS011;35751;48.072;11.688;2023-02-01T08:54:43;3.67;;;2.22;;
49852;SDS011;35751;48.072;11.688;2023-02-01T08:57:09;2.30;;;1.92;;
49852;SDS011;35751;48.072;11.688;2023-02-01T08:59:35;3.17;;;2.10;;
49852;SDS011;35751;48.072;11.688;2023-02-01T09:02:01;3.47;;;2.17;;
49852;SDS011;35751;48.072;11.688;2023-02-01T09:04:27;3.90;;;2.25;;
49852;SDS011;35751;48.072;11.688;2023-02-01T09:06:52;5.88;;;2.15;;
49852;SDS011;35751;48.072;11.688;2023-02-01T09:09:20;4.20;;;2.50;;
49852;SDS011;35751;48.072;11.688;2023-02-01T09:11:49;3.65;;;2.25;;
49852;SDS011;35751;48.072;11.688;2023-02-01T09:14:16;5.18;;;1.90;;
49852;SDS011;35751;48.072;11.688;2023-02-01T09:16:42;3.28;;;2.20;;
49852;SDS011;35751;48.072;11.688;2023-02-01T09:19:08;3.33;;;2.10;;
49852;SDS011;35751;48.072;11.688;2023-02-01T09:21:34;2.67;;;2.03;;
49852;SDS011;35751;48.072;11.688;2023-02-01T09:24:00;5.07;;;1.98;;
49852;SDS011;35751;48.072;11.688;2023-02-01T09:26:26;3.72;;;2.35;;
49852;SDS011;35751;48.072;11.688;2023-02-01T09:28:52;2.47;;;1.77;;
49852;SDS011;35751;48.072;11.688;2023-02-01T09:31:18;3.17;;;2.20;;
49852;SDS011;35751;48.072;11.688;2023-02-01T09:33:44;4.65;;;1.80;;
49852;SDS011;35751;48.072;11.688;2023-02-01T09:36:11;3.40;;;2.00;;
49852;SDS011;35751;48.072;11.688;2023-02-01T09:38:36;4.50;;;1.65;;
49852;SDS011;35751;48.072;11.688;2023-02-01T09:41:07;3.95;;;2.00;;
49852;SDS011;35751;48.072;11.688;2023-02-01T09:43:47;4.20;;;1.73;;
49852;SDS011;35751;48.072;11.688;2023-02-01T09:48:59;2.63;;;1.63;;
49852;SDS011;35751;48.072;11.688;2023-02-01T09:51:33;4.80;;;2.10;;
49852;SDS011;35751;48.072;11.688;2023-02-01T09:54:06;2.30;;;2.00;;
49852;SDS011;35751;48.072;11.688;2023-02-01T09:56:41;5.05;;;2.17;;
49852;SDS011;35751;48.072;11.688;2023-02-01T10:02:08;3.88;;;2.17;;
49852;SDS011;35751;48.072;11.688;2023-02-01T10:04:38;3.20;;;1.90;;
49852;SDS011;35751;48.072;11.688;2023-02-01T10:07:10;4.18;;;2.10;;
49852;SDS011;35751;48.072;11.688;2023-02-01T10:18:12;2.97;;;1.83;;
49852;SDS011;35751;48.072;11.688;2023-02-01T10:23:51;3.35;;;1.80;;
49852;SDS011;35751;48.072;11.688;2023-02-01T10:26:24;3.53;;;2.42;;
49852;SDS011;35751;48.072;11.688;2023-02-01T10:28:58;4.75;;;2.55;;
49852;SDS011;35751;48.072;11.688;2023-02-01T10:31:26;3.00;;;1.83;;
49852;SDS011;35751;48.072;11.688;2023-02-01T10:33:57;2.42;;;1.98;;
49852;SDS011;35751;48.072;11.688;2023-02-01T10:36:32;2.92;;;2.17;;
49852;SDS011;35751;48.072;11.688;2023-02-01T10:39:03;2.30;;;1.85;;
49852;SDS011;35751;48.072;11.688;2023-02-01T10:41:33;5.07;;;2.38;;
49852;SDS011;35751;48.072;11.688;2023-02-01T10:44:00;2.88;;;2.00;;
49852;SDS011;35751;48.072;11.688;2023-02-01T10:46:29;3.88;;;1.90;;
49852;SDS011;35751;48.072;11.688;2023-02-01T10:48:56;2.75;;;1.80;;
49852;SDS011;35751;48.072;11.688;2023-02-01T10:51:29;2.80;;;2.03;;
49852;SDS011;35751;48.072;11.688;2023-02-01T10:56:34;3.00;;;1.70;;
49852;SDS011;35751;48.072;11.688;2023-02-01T10:59:13;3.90;;;2.10;;
49852;SDS011;35751;48.072;11.688;2023-02-01T11:01:44;3.67;;;2.10;;
49852;SDS011;35751;48.072;11.688;2023-02-01T11:04:18;4.18;;;2.00;;
49852;SDS011;35751;48.072;11.688;2023-02-01T11:06:46;2.67;;;2.00;;
49852;SDS011;35751;48.072;11.688;2023-02-01T11:09:16;4.15;;;2.70;;
49852;SDS011;35751;48.072;11.688;2023-02-01T11:14:15;3.10;;;1.98;;
49852;SDS011;35751;48.072;11.688;2023-02-01T11:16:49;5.53;;;2.58;;
49852;SDS011;35751;48.072;11.688;2023-02-01T11:19:16;3.22;;;2.05;;
49852;SDS011;35751;48.072;11.688;2023-02-01T11:21:43;3.78;;;2.45;;
49852;SDS011;35751;48.072;11.688;2023-02-01T11:24:25;5.50;;;2.28;;
49852;SDS011;35751;48.072;11.688;2023-02-01T11:26:59;2.80;;;2.30;;
49852;SDS011;35751;48.072;11.688;2023-02-01T11:29:27;4.07;;;2.40;;
49852;SDS011;35751;48.072;11.688;2023-02-01T11:31:58;4.45;;;2.92;;
49852;SDS011;35751;48.072;11.688;2023-02-01T11:34:47;4.00;;;2.75;;
49852;SDS011;35751;48.072;11.688;2023-02-01T11:37:32;4.25;;;2.47;;
49852;SDS011;35751;48.072;11.688;2023-02-01T11:40:03;5.70;;;2.47;;
49852;SDS011;35751;48.072;11.688;2023-02-01T11:42:34;4.28;;;3.05;;
49852;SDS011;35751;48.072;11.688;2023-02-01T11:45:17;5.93;;;3.30;;
49852;SDS011;35751;48.072;11.688;2023-02-01T11:47:54;4.97;;;2.65;;
49852;SDS011;35751;48.072;11.688;2023-02-01T11:53:08;5.45;;;2.40;;
49852;SDS011;35751;48.072;11.688;2023-02-01T11:56:08;4.57;;;2.53;;
49852;SDS011;35751;48.072;11.688;2023-02-01T12:37:33;3.95;;;2.38;;
49852;SDS011;35751;48.072;11.688;2023-02-01T12:42:56;7.55;;;2.83;;
49852;SDS011;35751;48.072;11.688;2023-02-01T12:45:31;4.38;;;2.70;;
49852;SDS011;35751;48.072;11.688;2023-02-01T12:51:00;6.20;;;2.90;;
49852;SDS011;35751;48.072;11.688;2023-02-01T12:56:01;7.18;;;3.25;;
49852;SDS011;35751;48.072;11.688;2023-02-01T12:58:53;9.68;;;3.25;;
49852;SDS011;35751;48.072;11.688;2023-02-01T13:03:52;9.10;;;3.20;;
49852;SDS011;35751;48.072;11.688;2023-02-01T13:06:46;4.90;;;2.37;;
49852;SDS011;35751;48.072;11.688;2023-02-01T13:09:29;5.07;;;2.15;;
49852;SDS011;35751;48.072;11.688;2023-02-01T13:12:03;4.22;;;2.35;;
49852;SDS011;35751;48.072;11.688;2023-02-01T13:14:53;4.60;;;1.90;;
49852;SDS011;35751;48.072;11.688;2023-02-01T13:17:32;3.90;;;3.03;;
49852;SDS011;35751;48.072;11.688;2023-02-01T13:20:06;2.50;;;2.30;;
49852;SDS011;35751;48.072;11.688;2023-02-01T13:22:58;3.78;;;2.42;;
49852;SDS011;35751;48.072;11.688;2023-02-01T13:25:40;5.28;;;2.58;;
49852;SDS011;35751;48.072;11.688;2023-02-01T13:42:11;3.38;;;2.55;;
49852;SDS011;35751;48.072;11.688;2023-02-01T13:44:42;4.65;;;2.78;;
49852;SDS011;35751;48.072;11.688;2023-02-01T13:47:34;7.47;;;3.33;;
49852;SDS011;35751;48.072;11.688;2023-02-01T13:50:12;3.97;;;2.35;;
49852;SDS011;35751;48.072;11.688;2023-02-01T13:55:36;3.92;;;2.15;;
49852;SDS011;35751;48.072;11.688;2023-02-01T14:03:57;5.32;;;3.17;;
49852;SDS011;35751;48.072;11.688;2023-02-01T14:11:35;4.25;;;2.70;;
49852;SDS011;35751;48.072;11.688;2023-02-01T14:14:06;4.53;;;2.58;;
49852;SDS011;35751;48.072;11.688;2023-02-01T14:16:42;3.80;;;2.60;;
49852;SDS011;35751;48.072;11.688;2023-02-01T14:19:09;4.95;;;2.45;;
49852;SDS011;35751;48.072;11.688;2023-02-01T14:21:50;4.10;;;2.80;;
49852;SDS011;35751;48.072;11.688;2023-02-01T14:26:51;3.28;;;2.47;;
49852;SDS011;35751;48.072;11.688;2023-02-01T14:29:40;4.15;;;2.65;;
49852;SDS011;35751;48.072;11.688;2023-02-01T14:32:16;5.93;;;2.67;;
49852;SDS011;35751;48.072;11.688;2023-02-01T14:44:52;5.13;;;2.70;;
49852;SDS011;35751;48.072;11.688;2023-02-01T14:50:03;5.10;;;2.20;;
49852;SDS011;35751;48.072;11.688;2023-02-01T14:52:36;3.33;;;2.13;;
49852;SDS011;35751;48.072;11.688;2023-02-01T14:55:32;4.35;;;1.70;;
49852;SDS011;35751;48.072;11.688;2023-02-01T14:58:01;3.33;;;2.33;;
49852;SDS011;35751;48.072;11.688;2023-02-01T15:00:31;3.80;;;2.05;;
49852;SDS011;35751;48.072;11.688;2023-02-01T15:03:21;3.20;;;2.28;;
49852;SDS011;35751;48.072;11.688;2023-02-01T15:05:56;3.10;;;2.17;;
49852;SDS011;35751;48.072;11.688;2023-02-01T15:08:25;4.03;;;1.85;;
49852;SDS011;35751;48.072;11.688;2023-02-01T15:10:58;2.33;;;1.75;;
49852;SDS011;35751;48.072;11.688;2023-02-01T15:13:27;5.60;;;3.00;;
49852;SDS011;35751;48.072;11.688;2023-02-01T15:16:04;5.25;;;2.35;;
49852;SDS011;35751;48.072;11.688;2023-02-01T15:18:36;5.78;;;2.10;;
49852;SDS011;35751;48.072;11.688;2023-02-01T15:21:02;3.42;;;2.22;;
49852;SDS011;35751;48.072;11.688;2023-02-01T15:23:28;9.15;;;2.17;;
49852;SDS011;35751;48.072;11.688;2023-02-01T15:25:54;5.22;;;1.80;;
49852;SDS011;35751;48.072;11.688;2023-02-01T15:28:21;5.90;;;2.42;;
49852;SDS011;35751;48.072;11.688;2023-02-01T15:33:27;5.63;;;2.05;;
49852;SDS011;35751;48.072;11.688;2023-02-01T15:36:06;5.80;;;3.08;;
49852;SDS011;35751;48.072;11.688;2023-02-01T15:38:41;3.08;;;2.10;;
49852;SDS011;35751;48.072;11.688;2023-02-01T15:43:41;7.60;;;2.60;;
49852;SDS011;35751;48.072;11.688;2023-02-01T15:46:32;7.75;;;2.53;;
49852;SDS011;35751;48.072;11.688;2023-02-01T15:49:00;5.78;;;2.80;;
49852;SDS011;35751;48.072;11.688;2023-02-01T15:51:28;9.18;;;4.10;;
49852;SDS011;35751;48.072;11.688;2023-02-01T15:56:33;13.13;;;2.90;;
49852;SDS011;35751;48.072;11.688;2023-02-01T15:59:02;3.75;;;2.83;;
49852;SDS011;35751;48.072;11.688;2023-02-01T16:01:34;6.55;;;3.30;;
49852;SDS011;35751;48.072;11.688;2023-02-01T16:04:03;9.13;;;3.80;;
49852;SDS011;35751;48.072;11.688;2023-02-01T16:07:20;6.25;;;3.30;;
49852;SDS011;35751;48.072;11.688;2023-02-01T16:10:20;5.18;;;2.90;;
49852;SDS011;35751;48.072;11.688;2023-02-01T16:12:54;5.22;;;2.75;;
49852;SDS011;35751;48.072;11.688;2023-02-01T16:15:23;5.35;;;2.53;;
49852;SDS011;35751;48.072;11.688;2023-02-01T16:17:49;4.75;;;2.20;;
49852;SDS011;35751;48.072;11.688;2023-02-01T16:20:14;5.10;;;3.28;;
49852;SDS011;35751;48.072;11.688;2023-02-01T16:22:40;2.97;;;2.45;;
49852;SDS011;35751;48.072;11.688;2023-02-01T16:25:07;8.98;;;2.47;;
49852;SDS011;35751;48.072;11.688;2023-02-01T16:27:32;3.50;;;2.17;;
49852;SDS011;35751;48.072;11.688;2023-02-01T16:29:58;6.15;;;3.03;;
49852;SDS011;35751;48.072;11.688;2023-02-01T16:32:23;4.05;;;2.80;;
49852;SDS011;35751;48.072;11.688;2023-02-01T16:34:49;4.55;;;2.15;;
49852;SDS011;35751;48.072;11.688;2023-02-01T16:37:15;5.28;;;2.30;;
49852;SDS011;35751;48.072;11.688;2023-02-01T16:39:43;9.02;;;3.00;;
49852;SDS011;35751;48.072;11.688;2023-02-01T16:42:12;6.38;;;3.15;;
49852;SDS011;35751;48.072;11.688;2023-02-01T16:44:39;7.18;;;3.15;;
49852;SDS011;35751;48.072;11.688;2023-02-01T16:47:11;6.35;;;3.17;;
49852;SDS011;35751;48.072;11.688;2023-02-01T16:49:40;3.50;;;2.08;;
49852;SDS011;35751;48.072;11.688;2023-02-01T16:52:08;4.78;;;2.65;;
49852;SDS011;35751;48.072;11.688;2023-02-01T16:54:47;5.65;;;3.13;;
49852;SDS011;35751;48.072;11.688;2023-02-01T16:57:13;4.53;;;2.75;;
49852;SDS011;35751;48.072;11.688;2023-02-01T16:59:40;8.52;;;2.58;;
49852;SDS011;35751;48.072;11.688;2023-02-01T17:02:11;6.85;;;2.50;;
49852;SDS011;35751;48.072;11.688;2023-02-01T17:04:37;10.00;;;3.65;;
49852;SDS011;35751;48.072;11.688;2023-02-01T17:07:03;8.00;;;2.53;;
49852;SDS011;35751;48.072;11.688;2023-02-01T17:09:35;3.67;;;2.08;;
49852;SDS011;35751;48.072;11.688;2023-02-01T17:12:01;9.27;;;3.28;;
49852;SDS011;35751;48.072;11.688;2023-02-01T17:14:27;7.85;;;3.63;;
49852;SDS011;35751;48.072;11.688;2023-02-01T17:16:54;6.53;;;2.70;;
49852;SDS011;35751;48.072;11.688;2023-02-01T17:19:20;4.57;;;2.85;;
49852;SDS011;35751;48.072;11.688;2023-02-01T17:21:48;12.23;;;5.28;;
49852;SDS011;35751;48.072;11.688;2023-02-01T17:24:17;7.93;;;4.57;;